Time;durP1;ratioP1;P1;durP2;ratioP2;P2;SDS_P1;SDS_P2;PMS_P1;PMS_P2;Temp;Humidity;BMP_temperature;BMP_pressure;BME280_temperature;BME280_humidity;BME280_pressure;Samples;Min_cycle;Max_cycle;Signal;HPM_P1;HPM_P2
2023/08/09 00:00:20;;;;;;;;;;;17.90;99.90;;;;;;7333277;19;109079;-67
2023/08/09 00:02:47;;;;;;;;;;;17.90;99.90;;;;;;7325216;19;109344;-68
2023/08/09 00:05:15;;;;;;;;;;;17.90;99.90;;;;;;7333204;19;109754;-65
2023/08/09 00:07:42;;;;;;;;;;;17.90;99.90;;;;;;7329911;19;110034;-68
2023/08/09 00:10:09;;;;;;;;;;;17.90;99.90;;;;;;7336693;19;108889;-69
2023/08/09 00:12:36;;;;;;;;;;;17.90;99.90;;;;;;7329025;19;111761;-66
2023/08/09 00:15:04;;;;;;;;;;;18.00;99.90;;;;;;7328883;19;109739;-68
2023/08/09 00:17:33;;;;;;;;;;;18.00;99.90;;;;;;7329126;19;109120;-62
2023/08/09 00:20:01;;;;;;;;;;;18.00;99.90;;;;;;7325480;19;113099;-71
2023/08/09 00:22:28;;;;;;;;;;;18.00;99.90;;;;;;7330918;19;108802;-66
2023/08/09 00:24:55;;;;;;;;;;;18.00;99.90;;;;;;7327345;19;109761;-71
2023/08/09 00:27:22;;;;;;;;;;;18.00;99.90;;;;;;7331529;19;109757;-70
2023/08/09 00:29:49;;;;;;;;;;;18.00;99.90;;;;;;7330849;19;109406;-65
2023/08/09 00:32:16;;;;;;;;;;;18.00;99.90;;;;;;7334699;19;109307;-66
2023/08/09 00:34:43;;;;;;;;;;;18.00;99.90;;;;;;7327868;19;110372;-69
2023/08/09 00:37:10;;;;;;;;;;;18.00;99.90;;;;;;7328033;19;112711;-68
2023/08/09 00:39:37;;;;;;;;;;;18.00;99.90;;;;;;7331590;19;109104;-68
2023/08/09 00:42:05;;;;;;;;;;;18.00;99.90;;;;;;7329745;19;108880;-67
2023/08/09 00:44:32;;;;;;;;;;;18.00;99.90;;;;;;7321942;19;109942;-66
2023/08/09 00:46:59;;;;;;;;;;;18.00;99.90;;;;;;7330410;19;109927;-69
2023/08/09 00:49:27;;;;;;;;;;;18.00;99.90;;;;;;7327865;19;109671;-64
2023/08/09 00:51:54;;;;;;;;;;;18.00;99.90;;;;;;7338023;19;108588;-61
2023/08/09 00:54:23;;;;;;;;;;;18.00;99.90;;;;;;7336803;19;109416;-63
2023/08/09 00:59:22;;;;;;;;;;;18.00;99.90;;;;;;7370913;19;109681;-86
2023/08/09 01:01:49;;;;;;;;;;;18.00;99.90;;;;;;7376175;19;109258;-87
2023/08/09 01:04:16;;;;;;;;;;;18.00;99.90;;;;;;7377377;19;108345;-86
2023/08/09 01:07:06;;;;;;;;;;;17.90;99.90;;;;;;7349959;19;109611;-85
2023/08/09 01:15:08;;;;;;;;;;;17.80;99.90;;;;;;7353074;19;109294;-86
2023/08/09 01:17:47;;;;;;;;;;;17.70;99.90;;;;;;7352455;19;108951;-86
2023/08/09 01:20:16;;;;;;;;;;;17.70;99.90;;;;;;7350600;19;109060;-86
2023/08/09 01:22:50;;;;;;;;;;;17.60;99.90;;;;;;7347994;19;108476;-86
2023/08/09 01:25:18;;;;;;;;;;;17.50;99.90;;;;;;7343830;19;108779;-85
2023/08/09 01:27:48;;;;;;;;;;;17.50;99.90;;;;;;7342870;19;110206;-86
2023/08/09 01:30:16;;;;;;;;;;;17.40;99.90;;;;;;7342985;19;109023;-85
2023/08/09 01:32:43;;;;;;;;;;;17.40;99.90;;;;;;7343874;19;109318;-85
2023/08/09 01:35:15;;;;;;;;;;;17.50;99.90;;;;;;7343637;19;110433;-86
2023/08/09 01:37:45;;;;;;;;;;;17.50;99.90;;;;;;7345810;19;108662;-87
2023/08/09 01:40:15;;;;;;;;;;;17.60;99.90;;;;;;7340363;19;110296;-86
2023/08/09 01:42:43;;;;;;;;;;;17.60;99.90;;;;;;7342451;19;108748;-85
2023/08/09 01:45:12;;;;;;;;;;;17.60;99.90;;;;;;7342433;19;109289;-85
2023/08/09 01:47:47;;;;;;;;;;;17.70;99.90;;;;;;7346291;19;110451;-85
2023/08/09 01:50:20;;;;;;;;;;;17.70;99.90;;;;;;7341581;19;108388;-85
2023/08/09 01:52:48;;;;;;;;;;;17.70;99.90;;;;;;7337268;19;109083;-85
2023/08/09 01:55:17;;;;;;;;;;;17.70;99.90;;;;;;7338230;19;113574;-85
2023/08/09 01:57:46;;;;;;;;;;;17.70;99.90;;;;;;7341025;19;108926;-85
2023/08/09 02:00:19;;;;;;;;;;;17.50;99.90;;;;;;7340804;19;110555;-85
2023/08/09 02:02:52;;;;;;;;;;;17.60;99.90;;;;;;7336721;19;109515;-62
2023/08/09 02:05:20;;;;;;;;;;;17.50;99.90;;;;;;7334626;19;108816;-62
2023/08/09 02:07:47;;;;;;;;;;;17.50;99.90;;;;;;7337745;19;110658;-61
2023/08/09 02:10:14;;;;;;;;;;;17.50;99.90;;;;;;7335083;19;108717;-62
2023/08/09 02:12:47;;;;;;;;;;;17.50;99.90;;;;;;7335324;19;108611;-62
2023/08/09 02:15:15;;;;;;;;;;;17.50;99.90;;;;;;7333539;19;110241;-61
2023/08/09 02:17:44;;;;;;;;;;;17.50;99.90;;;;;;7333012;19;108649;-62
2023/08/09 02:20:11;;;;;;;;;;;17.60;99.90;;;;;;7337018;19;109181;-61
2023/08/09 02:22:39;;;;;;;;;;;17.50;99.90;;;;;;7340855;19;109081;-61
2023/08/09 02:25:07;;;;;;;;;;;17.50;99.90;;;;;;7334155;19;109432;-62
2023/08/09 02:27:34;;;;;;;;;;;17.50;99.90;;;;;;7334953;19;109629;-62
2023/08/09 02:30:06;;;;;;;;;;;17.40;99.90;;;;;;7334366;19;108320;-62
2023/08/09 02:32:37;;;;;;;;;;;17.40;99.90;;;;;;7330834;19;109196;-62
2023/08/09 02:35:05;;;;;;;;;;;17.30;99.90;;;;;;7333740;19;110368;-62
2023/08/09 02:37:32;;;;;;;;;;;17.30;99.90;;;;;;7336555;19;108946;-62
2023/08/09 02:40:00;;;;;;;;;;;17.30;99.90;;;;;;7331605;19;109289;-62
2023/08/09 02:42:28;;;;;;;;;;;17.30;99.90;;;;;;7338176;19;110009;-61
2023/08/09 02:44:56;;;;;;;;;;;17.30;99.90;;;;;;7339073;19;109610;-61
2023/08/09 02:47:23;;;;;;;;;;;17.40;99.90;;;;;;7331933;19;110369;-62
2023/08/09 02:49:50;;;;;;;;;;;17.40;99.90;;;;;;7333261;19;109320;-62
2023/08/09 02:52:17;;;;;;;;;;;17.40;99.90;;;;;;7330413;19;109569;-62
2023/08/09 02:54:45;;;;;;;;;;;17.50;99.90;;;;;;7334970;19;109438;-62
2023/08/09 02:57:12;;;;;;;;;;;17.50;99.90;;;;;;7329877;19;109870;-62
2023/08/09 02:59:39;;;;;;;;;;;17.50;99.90;;;;;;7330723;19;109076;-63
2023/08/09 03:02:06;;;;;;;;;;;17.50;99.90;;;;;;7326331;19;110647;-64
2023/08/09 03:04:34;;;;;;;;;;;17.40;99.90;;;;;;7337494;19;109244;-64
2023/08/09 03:07:01;;;;;;;;;;;17.50;99.90;;;;;;7332866;19;110027;-64
2023/08/09 03:09:29;;;;;;;;;;;17.40;99.90;;;;;;7334417;19;108725;-64
2023/08/09 03:11:56;;;;;;;;;;;17.40;99.90;;;;;;7333026;19;108606;-64
2023/08/09 03:14:23;;;;;;;;;;;17.40;99.90;;;;;;7334503;19;110143;-64
2023/08/09 03:16:50;;;;;;;;;;;17.40;99.90;;;;;;7327458;19;109158;-64
2023/08/09 03:19:18;;;;;;;;;;;17.50;99.90;;;;;;7333196;19;109181;-63
2023/08/09 03:21:45;;;;;;;;;;;17.40;99.90;;;;;;7332629;19;109644;-64
2023/08/09 03:24:12;;;;;;;;;;;17.40;99.90;;;;;;7332968;19;108673;-64
2023/08/09 03:26:39;;;;;;;;;;;17.40;99.90;;;;;;7337833;19;108601;-63
2023/08/09 03:29:06;;;;;;;;;;;17.40;99.90;;;;;;7332339;19;110363;-65
2023/08/09 03:31:34;;;;;;;;;;;17.30;99.90;;;;;;7333422;19;108793;-63
2023/08/09 03:34:02;;;;;;;;;;;17.30;99.90;;;;;;7332235;19;110018;-63
2023/08/09 03:36:29;;;;;;;;;;;17.30;99.90;;;;;;7330950;19;108795;-64
2023/08/09 03:38:57;;;;;;;;;;;17.30;99.90;;;;;;7330028;19;109408;-63
2023/08/09 03:41:25;;;;;;;;;;;17.30;99.90;;;;;;7333085;19;109483;-64
2023/08/09 03:43:52;;;;;;;;;;;17.30;99.90;;;;;;7329036;19;109138;-63
2023/08/09 03:46:19;;;;;;;;;;;17.20;99.90;;;;;;7330818;19;108717;-63
2023/08/09 03:48:46;;;;;;;;;;;17.20;99.90;;;;;;7331474;19;110133;-63
2023/08/09 03:51:14;;;;;;;;;;;17.20;99.90;;;;;;7332630;19;109882;-64
2023/08/09 03:53:41;;;;;;;;;;;17.10;99.90;;;;;;7330889;19;109928;-64
2023/08/09 03:56:08;;;;;;;;;;;17.10;99.90;;;;;;7329868;19;109283;-63
2023/08/09 03:58:35;;;;;;;;;;;17.10;99.90;;;;;;7328753;19;109155;-63
2023/08/09 04:01:02;;;;;;;;;;;17.10;99.90;;;;;;7330957;19;110697;-63
2023/08/09 04:03:30;;;;;;;;;;;17.10;99.90;;;;;;7331529;19;109078;-63
2023/08/09 04:05:57;;;;;;;;;;;17.10;99.90;;;;;;7333630;19;108745;-63
2023/08/09 04:08:26;;;;;;;;;;;17.10;99.90;;;;;;7328977;19;110495;-64
2023/08/09 04:10:55;;;;;;;;;;;17.10;99.90;;;;;;7337801;19;108718;-63
2023/08/09 04:13:24;;;;;;;;;;;17.10;99.90;;;;;;7325540;19;110089;-64
2023/08/09 04:15:53;;;;;;;;;;;17.10;99.90;;;;;;7330549;19;110199;-63
2023/08/09 04:18:20;;;;;;;;;;;17.10;99.90;;;;;;7328493;19;109950;-63
2023/08/09 04:20:48;;;;;;;;;;;17.10;99.90;;;;;;7329742;19;109264;-63
2023/08/09 04:23:15;;;;;;;;;;;17.10;99.90;;;;;;7330825;19;108840;-64
2023/08/09 04:25:43;;;;;;;;;;;17.10;99.90;;;;;;7329753;19;109905;-63
2023/08/09 04:28:10;;;;;;;;;;;17.10;99.90;;;;;;7330366;19;109950;-63
2023/08/09 04:30:40;;;;;;;;;;;17.10;99.90;;;;;;7332372;19;108839;-64
2023/08/09 04:33:07;;;;;;;;;;;17.10;99.90;;;;;;7335037;19;108767;-63
2023/08/09 04:35:35;;;;;;;;;;;17.10;99.90;;;;;;7331865;19;109139;-63
2023/08/09 04:38:03;;;;;;;;;;;17.10;99.90;;;;;;7331947;19;108836;-63
2023/08/09 04:40:31;;;;;;;;;;;17.10;99.90;;;;;;7332548;19;110549;-64
2023/08/09 04:42:58;;;;;;;;;;;17.20;99.90;;;;;;7331637;19;109375;-64
2023/08/09 04:45:26;;;;;;;;;;;17.10;99.90;;;;;;7331732;19;111617;-64
2023/08/09 04:47:53;;;;;;;;;;;17.20;99.90;;;;;;7329918;19;110060;-64
2023/08/09 04:50:21;;;;;;;;;;;17.10;99.90;;;;;;7332848;19;109205;-64
2023/08/09 04:52:49;;;;;;;;;;;17.10;99.90;;;;;;7331463;19;110243;-64
2023/08/09 04:55:16;;;;;;;;;;;17.10;99.90;;;;;;7330712;19;109274;-64
2023/08/09 04:57:43;;;;;;;;;;;17.10;99.90;;;;;;7330913;19;108692;-64
2023/08/09 05:00:11;;;;;;;;;;;17.10;99.90;;;;;;7327063;19;113043;-64
2023/08/09 05:02:39;;;;;;;;;;;17.10;99.90;;;;;;7325498;19;109732;-64
2023/08/09 05:05:06;;;;;;;;;;;17.10;99.90;;;;;;7328483;19;109860;-64
2023/08/09 05:07:34;;;;;;;;;;;17.10;99.90;;;;;;7331971;19;109670;-64
2023/08/09 05:10:02;;;;;;;;;;;17.10;99.90;;;;;;7332884;19;108418;-64
2023/08/09 05:12:29;;;;;;;;;;;17.10;99.90;;;;;;7326169;19;109273;-64
2023/08/09 05:14:57;;;;;;;;;;;17.10;99.90;;;;;;7335652;19;114188;-64
2023/08/09 05:17:25;;;;;;;;;;;17.10;99.90;;;;;;7327182;19;109724;-64
2023/08/09 05:19:52;;;;;;;;;;;17.10;99.90;;;;;;7329818;19;110283;-64
2023/08/09 05:22:21;;;;;;;;;;;17.10;99.90;;;;;;7331959;19;110332;-64
2023/08/09 05:24:48;;;;;;;;;;;17.00;99.90;;;;;;7326777;19;110539;-64
2023/08/09 05:27:15;;;;;;;;;;;17.10;99.90;;;;;;7333149;19;110849;-64
2023/08/09 05:29:43;;;;;;;;;;;17.10;99.90;;;;;;7330542;19;108447;-64
2023/08/09 05:32:10;;;;;;;;;;;17.10;99.90;;;;;;7329083;19;108628;-64
2023/08/09 05:34:37;;;;;;;;;;;17.00;99.90;;;;;;7326592;19;110523;-64
2023/08/09 05:37:04;;;;;;;;;;;17.00;99.90;;;;;;7335274;19;109520;-64
2023/08/09 05:39:31;;;;;;;;;;;16.90;99.90;;;;;;7324393;19;110751;-64
2023/08/09 05:41:59;;;;;;;;;;;16.90;99.90;;;;;;7333009;19;110356;-64
2023/08/09 05:44:26;;;;;;;;;;;16.90;99.90;;;;;;7333893;19;108607;-64
2023/08/09 05:46:53;;;;;;;;;;;16.90;99.90;;;;;;7336859;19;109400;-64
2023/08/09 05:49:20;;;;;;;;;;;16.90;99.90;;;;;;7333146;19;112610;-64
2023/08/09 05:51:48;;;;;;;;;;;16.90;99.90;;;;;;7332529;19;109534;-66
2023/08/09 05:54:15;;;;;;;;;;;17.00;99.90;;;;;;7339426;19;110252;-66
2023/08/09 05:56:42;;;;;;;;;;;17.00;99.90;;;;;;7335371;19;110156;-66
2023/08/09 05:59:10;;;;;;;;;;;17.00;99.90;;;;;;7337848;19;109527;-66
2023/08/09 06:01:37;;;;;;;;;;;17.00;99.90;;;;;;7335565;19;109082;-66
2023/08/09 06:04:04;;;;;;;;;;;17.00;99.90;;;;;;7334463;19;108783;-64
2023/08/09 06:06:32;;;;;;;;;;;17.00;99.90;;;;;;7333013;19;109897;-65
2023/08/09 06:08:59;;;;;;;;;;;17.10;99.90;;;;;;7336986;19;109357;-65
2023/08/09 06:11:40;;;;;;;;;;;17.20;99.90;;;;;;7335237;19;110951;-65
2023/08/09 06:14:07;;;;;;;;;;;17.30;99.90;;;;;;7336421;19;109713;-65
2023/08/09 06:16:34;;;;;;;;;;;17.40;99.90;;;;;;7331145;19;110452;-66
2023/08/09 06:19:02;;;;;;;;;;;17.50;99.90;;;;;;7334712;19;110228;-65
2023/08/09 06:21:29;;;;;;;;;;;17.60;99.90;;;;;;7340891;19;109188;-65
2023/08/09 06:23:57;;;;;;;;;;;17.70;99.90;;;;;;7335713;19;110956;-65
2023/08/09 06:26:24;;;;;;;;;;;17.70;99.90;;;;;;7331408;19;109129;-66
2023/08/09 06:28:51;;;;;;;;;;;17.80;99.90;;;;;;7333360;19;111151;-66
2023/08/09 06:31:18;;;;;;;;;;;17.90;99.90;;;;;;7335214;19;108482;-66
2023/08/09 06:33:45;;;;;;;;;;;17.90;99.90;;;;;;7332397;19;109631;-66
2023/08/09 06:36:12;;;;;;;;;;;18.00;99.90;;;;;;7333998;19;109931;-66
2023/08/09 06:38:40;;;;;;;;;;;18.10;99.90;;;;;;7330295;19;109369;-66
2023/08/09 06:41:07;;;;;;;;;;;18.10;99.90;;;;;;7335040;19;109718;-66
2023/08/09 06:43:35;;;;;;;;;;;18.20;99.90;;;;;;7338380;19;109035;-66
2023/08/09 06:46:02;;;;;;;;;;;18.20;99.90;;;;;;7335207;19;109149;-66
2023/08/09 06:48:31;;;;;;;;;;;18.20;99.90;;;;;;7331785;19;109132;-66
2023/08/09 06:51:00;;;;;;;;;;;18.30;99.90;;;;;;7331987;19;108879;-66
2023/08/09 06:53:27;;;;;;;;;;;18.40;99.90;;;;;;7335482;19;109139;-66
2023/08/09 06:55:54;;;;;;;;;;;18.40;99.90;;;;;;7335368;19;109148;-66
2023/08/09 06:58:21;;;;;;;;;;;18.40;99.90;;;;;;7335407;19;109110;-66
2023/08/09 07:00:49;;;;;;;;;;;18.50;99.90;;;;;;7334227;19;109637;-66
2023/08/09 07:03:17;;;;;;;;;;;18.70;99.90;;;;;;7338698;19;109267;-66
2023/08/09 07:05:45;;;;;;;;;;;18.70;99.90;;;;;;7334069;19;109612;-66
2023/08/09 07:08:12;;;;;;;;;;;18.80;99.90;;;;;;7337608;19;108996;-66
2023/08/09 07:10:39;;;;;;;;;;;18.90;99.90;;;;;;7333491;19;108884;-66
2023/08/09 07:13:06;;;;;;;;;;;18.90;99.90;;;;;;7335653;19;111469;-66
2023/08/09 07:15:34;;;;;;;;;;;18.90;99.90;;;;;;7329640;19;110370;-66
2023/08/09 07:18:01;;;;;;;;;;;19.00;99.90;;;;;;7334987;19;108607;-66
2023/08/09 07:20:28;;;;;;;;;;;19.00;99.90;;;;;;7330942;19;109837;-66
2023/08/09 07:22:56;;;;;;;;;;;19.10;99.90;;;;;;7338326;19;109001;-66
2023/08/09 07:25:23;;;;;;;;;;;19.10;99.90;;;;;;7340862;19;110451;-66
2023/08/09 07:27:50;;;;;;;;;;;19.10;99.90;;;;;;7333258;19;108645;-66
2023/08/09 07:30:18;;;;;;;;;;;19.10;99.90;;;;;;7333500;19;108889;-66
2023/08/09 07:32:46;;;;;;;;;;;19.20;99.90;;;;;;7328381;19;110266;-66
2023/08/09 07:35:13;;;;;;;;;;;19.20;99.90;;;;;;7336547;19;108363;-66
2023/08/09 07:37:42;;;;;;;;;;;19.30;99.90;;;;;;7330051;19;108856;-66
2023/08/09 07:40:12;;;;;;;;;;;19.30;99.90;;;;;;7334763;19;109228;-66
2023/08/09 07:42:40;;;;;;;;;;;19.40;99.90;;;;;;7329306;19;108517;-66
2023/08/09 07:45:08;;;;;;;;;;;19.50;99.90;;;;;;7334679;19;108746;-67
2023/08/09 07:47:36;;;;;;;;;;;19.40;99.90;;;;;;7340576;19;111662;-66
2023/08/09 07:50:05;;;;;;;;;;;19.40;99.90;;;;;;7330285;19;110923;-66
2023/08/09 07:52:32;;;;;;;;;;;19.40;99.90;;;;;;7327426;19;109997;-66
2023/08/09 07:54:59;;;;;;;;;;;19.40;99.90;;;;;;7333857;19;110172;-67
2023/08/09 07:57:27;;;;;;;;;;;19.50;99.90;;;;;;7329987;19;110741;-66
2023/08/09 07:59:54;;;;;;;;;;;19.50;99.90;;;;;;7329660;19;109389;-66
2023/08/09 08:02:28;;;;;;;;;;;19.60;99.90;;;;;;7331700;19;110940;-67
2023/08/09 08:04:55;;;;;;;;;;;19.70;99.90;;;;;;7329961;19;109199;-66
2023/08/09 08:07:23;;;;;;;;;;;19.80;99.90;;;;;;7330220;19;110090;-66
2023/08/09 08:09:50;;;;;;;;;;;19.90;99.90;;;;;;7342829;19;108867;-66
2023/08/09 08:12:18;;;;;;;;;;;19.90;99.90;;;;;;7329960;19;110160;-66
2023/08/09 08:14:49;;;;;;;;;;;20.00;99.90;;;;;;7332524;19;108356;-66
2023/08/09 08:17:16;;;;;;;;;;;20.10;99.90;;;;;;7330083;19;110783;-67
2023/08/09 08:19:43;;;;;;;;;;;20.20;99.90;;;;;;7332463;19;109836;-66
2023/08/09 08:22:11;;;;;;;;;;;20.20;99.90;;;;;;7331912;19;110113;-66
2023/08/09 08:24:39;;;;;;;;;;;20.30;99.90;;;;;;7329357;19;109335;-67
2023/08/09 08:27:06;;;;;;;;;;;20.30;99.90;;;;;;7330548;19;110115;-66
2023/08/09 08:29:34;;;;;;;;;;;20.40;99.90;;;;;;7334962;19;109350;-66
2023/08/09 08:32:01;;;;;;;;;;;20.40;99.90;;;;;;7334376;19;109209;-66
2023/08/09 08:34:31;;;;;;;;;;;20.40;99.90;;;;;;7332097;19;109055;-66
2023/08/09 08:36:59;;;;;;;;;;;20.30;99.90;;;;;;7329276;19;108597;-67
2023/08/09 08:39:31;;;;;;;;;;;20.40;99.90;;;;;;7331659;19;109167;-66
2023/08/09 08:41:59;;;;;;;;;;;20.50;99.90;;;;;;7328830;19;110938;-66
2023/08/09 08:44:27;;;;;;;;;;;20.50;99.90;;;;;;7332676;19;109716;-66
2023/08/09 08:46:54;;;;;;;;;;;20.60;99.90;;;;;;7330402;19;110315;-66
2023/08/09 08:49:27;;;;;;;;;;;20.70;99.90;;;;;;7326873;19;109390;-67
2023/08/09 08:51:55;;;;;;;;;;;20.80;99.90;;;;;;7332407;19;109183;-67
2023/08/09 08:54:23;;;;;;;;;;;21.00;99.90;;;;;;7335290;19;111067;-66
2023/08/09 08:56:55;;;;;;;;;;;21.10;99.90;;;;;;7331180;19;110885;-67
2023/08/09 08:59:23;;;;;;;;;;;21.00;99.90;;;;;;7328351;19;110252;-67
2023/08/09 09:01:51;;;;;;;;;;;21.10;99.90;;;;;;7329160;19;109251;-67
2023/08/09 09:04:19;;;;;;;;;;;21.20;99.90;;;;;;7332299;19;108759;-66
2023/08/09 09:06:47;;;;;;;;;;;21.30;99.90;;;;;;7331149;19;109190;-67
2023/08/09 09:09:14;;;;;;;;;;;21.30;99.90;;;;;;7331217;19;108792;-67
2023/08/09 09:11:43;;;;;;;;;;;21.30;99.90;;;;;;7329157;19;109412;-66
2023/08/09 09:14:11;;;;;;;;;;;21.20;99.90;;;;;;7335552;19;111122;-66
2023/08/09 09:16:39;;;;;;;;;;;21.30;99.90;;;;;;7340273;19;109027;-66
2023/08/09 09:19:06;;;;;;;;;;;21.50;99.90;;;;;;7340134;19;109452;-67
2023/08/09 09:21:34;;;;;;;;;;;21.60;99.90;;;;;;7338580;19;108420;-67
2023/08/09 09:24:07;;;;;;;;;;;21.60;99.90;;;;;;7337570;19;110665;-66
2023/08/09 09:26:37;;;;;;;;;;;21.70;99.90;;;;;;7336986;19;109117;-67
2023/08/09 09:29:08;;;;;;;;;;;21.70;99.90;;;;;;7340345;19;108643;-67
2023/08/09 09:31:39;;;;;;;;;;;21.80;99.90;;;;;;7340094;19;108936;-67
2023/08/09 09:34:07;;;;;;;;;;;21.90;99.90;;;;;;7338002;19;110796;-68
2023/08/09 09:36:37;;;;;;;;;;;21.90;99.90;;;;;;7343930;19;108549;-67
2023/08/09 09:39:09;;;;;;;;;;;22.00;99.90;;;;;;7338648;19;110152;-67
2023/08/09 09:41:38;;;;;;;;;;;22.10;99.90;;;;;;7334937;19;109652;-71
2023/08/09 09:44:05;;;;;;;;;;;22.10;99.90;;;;;;7336446;19;108475;-71
2023/08/09 09:46:39;;;;;;;;;;;22.10;99.90;;;;;;7337883;19;110608;-71
2023/08/09 09:49:07;;;;;;;;;;;21.90;99.90;;;;;;7337796;19;108840;-70
2023/08/09 09:51:34;;;;;;;;;;;21.90;99.90;;;;;;7334310;19;109277;-70
2023/08/09 09:54:04;;;;;;;;;;;21.90;99.90;;;;;;7336228;19;109580;-71
2023/08/09 09:56:31;;;;;;;;;;;22.10;99.90;;;;;;7336771;19;108855;-70
2023/08/09 09:58:58;;;;;;;;;;;22.40;99.90;;;;;;7345543;19;108278;-71
2023/08/09 10:01:26;;;;;;;;;;;22.50;99.90;;;;;;7338869;19;109723;-72
2023/08/09 10:03:59;;;;;;;;;;;22.60;99.90;;;;;;7337431;19;108892;-75
2023/08/09 10:06:28;;;;;;;;;;;22.50;99.90;;;;;;7339258;19;109186;-76
2023/08/09 10:08:56;;;;;;;;;;;22.40;99.90;;;;;;7338123;19;109767;-74
2023/08/09 10:11:23;;;;;;;;;;;22.40;99.90;;;;;;7338389;19;109189;-75
2023/08/09 10:13:52;;;;;;;;;;;22.40;99.90;;;;;;7334899;19;111101;-75
2023/08/09 10:16:20;;;;;;;;;;;22.30;99.90;;;;;;7336570;19;108691;-73
2023/08/09 10:18:52;;;;;;;;;;;22.20;99.90;;;;;;7337347;19;108985;-72
2023/08/09 10:21:20;;;;;;;;;;;22.30;99.90;;;;;;7342146;19;109707;-73
2023/08/09 10:23:59;;;;;;;;;;;22.40;99.90;;;;;;7338299;19;109347;-74
2023/08/09 10:26:27;;;;;;;;;;;22.40;99.90;;;;;;7334391;19;114863;-73
2023/08/09 10:29:00;;;;;;;;;;;22.50;99.90;;;;;;7337716;19;109235;-71
2023/08/09 10:31:54;;;;;;;;;;;22.50;99.90;;;;;;7341553;19;109126;-71
2023/08/09 10:34:34;;;;;;;;;;;22.60;99.90;;;;;;7333505;19;109660;-71
2023/08/09 10:37:02;;;;;;;;;;;22.70;99.90;;;;;;7336381;19;108494;-88
2023/08/09 10:39:31;;;;;;;;;;;22.70;99.90;;;;;;7336754;19;109099;-94
2023/08/09 10:44:45;;;;;;;;;;;22.90;99.90;;;;;;7334703;19;108761;-87
2023/08/09 10:47:30;;;;;;;;;;;23.00;99.90;;;;;;7366444;19;109213;-87
2023/08/09 11:01:02;;;;;;;;;;;23.10;99.90;;;;;;7328435;19;108881;-70
2023/08/09 11:03:30;;;;;;;;;;;23.20;99.90;;;;;;7339400;19;109144;-70
2023/08/09 11:05:58;;;;;;;;;;;23.30;99.90;;;;;;7337541;19;108925;-70
2023/08/09 11:08:29;;;;;;;;;;;23.50;99.90;;;;;;7340405;19;108464;-72
2023/08/09 11:13:27;;;;;;;;;;;23.80;99.90;;;;;;7342042;19;110059;-87
2023/08/09 11:15:54;;;;;;;;;;;24.00;99.90;;;;;;7344225;19;109442;-88
2023/08/09 11:18:21;;;;;;;;;;;24.10;99.90;;;;;;7348010;19;110176;-87
2023/08/09 11:20:48;;;;;;;;;;;24.10;99.90;;;;;;7341069;19;111716;-87
2023/08/09 11:23:15;;;;;;;;;;;24.10;99.90;;;;;;7345921;19;108668;-86
2023/08/09 11:25:42;;;;;;;;;;;24.10;99.90;;;;;;7344541;19;109932;-87
2023/08/09 11:28:11;;;;;;;;;;;24.20;99.90;;;;;;7348985;19;110141;-87
2023/08/09 11:30:39;;;;;;;;;;;24.20;99.90;;;;;;7348875;19;108188;-86
2023/08/09 11:33:06;;;;;;;;;;;24.20;99.90;;;;;;7349595;19;110292;-87
2023/08/09 11:35:39;;;;;;;;;;;24.20;99.90;;;;;;7344284;19;109970;-88
2023/08/09 11:38:09;;;;;;;;;;;24.10;99.90;;;;;;7344881;19;109029;-87
2023/08/09 11:40:41;;;;;;;;;;;23.90;99.90;;;;;;7340418;19;110123;-86
2023/08/09 11:43:13;;;;;;;;;;;23.80;99.90;;;;;;7340985;19;112847;-86
2023/08/09 11:45:52;;;;;;;;;;;23.80;99.90;;;;;;7336526;19;108548;-87
2023/08/09 11:48:28;;;;;;;;;;;23.80;99.90;;;;;;7337047;19;109800;-87
2023/08/09 11:51:11;;;;;;;;;;;23.80;99.90;;;;;;7348758;19;111353;-86
2023/08/09 11:53:39;;;;;;;;;;;23.80;99.90;;;;;;7339973;19;110522;-88
2023/08/09 11:56:10;;;;;;;;;;;23.80;99.90;;;;;;7338557;19;111471;-86
2023/08/09 11:58:38;;;;;;;;;;;24.00;99.90;;;;;;7341184;19;108640;-86
2023/08/09 12:01:23;;;;;;;;;;;24.20;99.90;;;;;;7340819;19;109371;-87
2023/08/09 12:03:55;;;;;;;;;;;24.30;99.90;;;;;;7342851;19;111425;-86
2023/08/09 12:20:13;;;;;;;;;;;25.20;99.90;;;;;;7328787;19;108928;-70
2023/08/09 12:22:41;;;;;;;;;;;25.30;99.90;;;;;;7335924;19;110080;-69
2023/08/09 12:25:10;;;;;;;;;;;25.30;99.90;;;;;;7333844;19;112930;-70
2023/08/09 12:27:39;;;;;;;;;;;25.40;99.90;;;;;;7333786;19;109168;-70
2023/08/09 12:30:10;;;;;;;;;;;25.40;99.90;;;;;;7336664;19;108434;-69
2023/08/09 12:32:38;;;;;;;;;;;25.50;99.90;;;;;;7330535;19;112361;-69
2023/08/09 12:35:06;;;;;;;;;;;25.50;99.90;;;;;;7334445;19;109545;-70
2023/08/09 12:37:36;;;;;;;;;;;25.50;99.90;;;;;;7337531;19;108252;-70
2023/08/09 12:40:05;;;;;;;;;;;25.30;99.90;;;;;;7332670;19;109582;-70
2023/08/09 12:42:33;;;;;;;;;;;25.00;99.90;;;;;;7332790;19;109051;-70
2023/08/09 12:45:00;;;;;;;;;;;24.80;99.90;;;;;;7332632;19;109203;-70
2023/08/09 12:47:28;;;;;;;;;;;24.50;99.90;;;;;;7330567;19;110083;-70
2023/08/09 12:49:56;;;;;;;;;;;24.50;99.90;;;;;;7334992;19;112147;-70
2023/08/09 12:52:23;;;;;;;;;;;24.50;99.90;;;;;;7341101;19;109062;-69
2023/08/09 12:54:51;;;;;;;;;;;24.50;99.90;;;;;;7340992;19;108899;-69
2023/08/09 12:57:18;;;;;;;;;;;24.70;99.90;;;;;;7339029;19;109119;-70
2023/08/09 12:59:45;;;;;;;;;;;24.80;99.90;;;;;;7341390;19;110109;-70
2023/08/09 13:02:13;;;;;;;;;;;24.80;99.90;;;;;;7339716;19;109143;-70
2023/08/09 13:04:40;;;;;;;;;;;24.80;99.90;;;;;;7338862;19;109923;-70
2023/08/09 13:07:08;;;;;;;;;;;24.60;99.90;;;;;;7338408;19;109115;-71
2023/08/09 13:09:36;;;;;;;;;;;24.50;99.90;;;;;;7342797;19;109078;-70
2023/08/09 13:12:08;;;;;;;;;;;24.40;99.90;;;;;;7336554;19;109045;-71
2023/08/09 13:14:36;;;;;;;;;;;24.30;99.90;;;;;;7341160;19;108745;-70
2023/08/09 13:17:03;;;;;;;;;;;24.20;99.90;;;;;;7337757;19;109182;-70
2023/08/09 13:19:34;;;;;;;;;;;24.10;99.90;;;;;;7335149;19;108968;-69
2023/08/09 13:22:07;;;;;;;;;;;24.10;99.90;;;;;;7342585;19;109968;-69
2023/08/09 13:24:34;;;;;;;;;;;24.30;99.90;;;;;;7339000;19;110188;-70
2023/08/09 13:27:03;;;;;;;;;;;24.50;99.90;;;;;;7338969;19;108341;-70
2023/08/09 13:29:30;;;;;;;;;;;24.60;99.90;;;;;;7337844;19;109009;-70
2023/08/09 13:31:57;;;;;;;;;;;24.60;99.90;;;;;;7337560;19;110873;-70
2023/08/09 13:34:28;;;;;;;;;;;24.90;99.90;;;;;;7339332;19;108884;-69
2023/08/09 13:36:55;;;;;;;;;;;25.00;99.90;;;;;;7339682;19;108682;-70
2023/08/09 13:39:24;;;;;;;;;;;25.30;99.90;;;;;;7337033;19;110254;-68
2023/08/09 13:41:51;;;;;;;;;;;25.50;99.90;;;;;;7344356;19;109911;-69
2023/08/09 13:44:18;;;;;;;;;;;25.70;99.90;;;;;;7338629;19;109194;-69
2023/08/09 13:46:46;;;;;;;;;;;25.80;99.90;;;;;;7339080;19;108904;-70
2023/08/09 13:49:13;;;;;;;;;;;25.60;99.90;;;;;;7336851;19;108300;-70
2023/08/09 13:51:40;;;;;;;;;;;25.30;99.90;;;;;;7337983;19;109172;-70
2023/08/09 13:54:08;;;;;;;;;;;25.10;99.90;;;;;;7337744;19;108810;-69
2023/08/09 13:56:35;;;;;;;;;;;25.20;99.90;;;;;;7337314;19;109050;-70
2023/08/09 13:59:02;;;;;;;;;;;25.40;99.90;;;;;;7337291;19;109079;-70
2023/08/09 14:01:29;;;;;;;;;;;25.40;99.90;;;;;;7337728;19;108907;-69
2023/08/09 14:03:57;;;;;;;;;;;25.40;99.90;;;;;;7342707;19;108533;-70
2023/08/09 14:06:24;;;;;;;;;;;25.30;99.90;;;;;;7339692;19;108545;-70
2023/08/09 14:08:52;;;;;;;;;;;25.40;99.90;;;;;;7339072;19;109460;-69
2023/08/09 14:11:19;;;;;;;;;;;25.60;99.90;;;;;;7333181;19;110020;-69
2023/08/09 14:13:46;;;;;;;;;;;25.80;99.90;;;;;;7337658;19;108445;-69
2023/08/09 14:16:13;;;;;;;;;;;25.90;99.90;;;;;;7337196;19;110079;-69
2023/08/09 14:18:41;;;;;;;;;;;26.00;99.90;;;;;;7334156;19;109762;-70
2023/08/09 14:21:09;;;;;;;;;;;26.10;99.90;;;;;;7334952;19;108518;-70
2023/08/09 14:23:36;;;;;;;;;;;26.10;99.90;;;;;;7336086;19;108691;-69
2023/08/09 14:26:06;;;;;;;;;;;26.10;99.90;;;;;;7340140;19;111375;-70
2023/08/09 14:28:33;;;;;;;;;;;26.10;99.90;;;;;;7335306;19;109361;-70
2023/08/09 14:31:00;;;;;;;;;;;26.20;99.90;;;;;;7333922;19;110150;-69
2023/08/09 14:33:28;;;;;;;;;;;26.40;99.90;;;;;;7336767;19;110637;-69
2023/08/09 14:35:55;;;;;;;;;;;26.50;99.90;;;;;;7338804;19;109343;-70
2023/08/09 14:38:23;;;;;;;;;;;26.60;99.70;;;;;;7334771;19;109817;-70
2023/08/09 14:40:50;;;;;;;;;;;26.70;98.70;;;;;;7337407;19;108916;-69
2023/08/09 14:43:17;;;;;;;;;;;26.70;99.20;;;;;;7332744;19;109253;-70
2023/08/09 14:45:44;;;;;;;;;;;26.70;97.40;;;;;;7337861;19;109733;-70
2023/08/09 14:48:12;;;;;;;;;;;26.70;98.40;;;;;;7341523;19;109036;-69